sensor_id;sensor_type;location;lat;lon;timestamp;temperature;humidity
21037;DHT22;10677;50.942;4.028;2022-11-20T00:00:47;5.40;99.90
21037;DHT22;10677;50.942;4.028;2022-11-20T00:03:13;5.30;99.90
21037;DHT22;10677;50.942;4.028;2022-11-20T00:05:39;5.30;99.90
21037;DHT22;10677;50.942;4.028;2022-11-20T00:08:04;5.30;99.90
21037;DHT22;10677;50.942;4.028;2022-11-20T00:10:30;5.60;99.90
21037;DHT22;10677;50.942;4.028;2022-11-20T00:12:58;5.60;99.90
21037;DHT22;10677;50.942;4.028;2022-11-20T00:15:23;5.50;99.90
21037;DHT22;10677;50.942;4.028;2022-11-20T00:17:49;5.60;99.90
21037;DHT22;10677;50.942;4.028;2022-11-20T00:20:15;5.70;99.90
21037;DHT22;10677;50.942;4.028;2022-11-20T00:22:41;5.80;99.90
21037;DHT22;10677;50.942;4.028;2022-11-20T00:25:06;5.80;99.90
21037;DHT22;10677;50.942;4.028;2022-11-20T00:27:32;5.80;99.90
21037;DHT22;10677;50.942;4.028;2022-11-20T00:29:58;5.70;99.90
21037;DHT22;10677;50.942;4.028;2022-11-20T00:32:23;5.70;99.90
21037;DHT22;10677;50.942;4.028;2022-11-20T00:34:49;5.70;99.90
21037;DHT22;10677;50.942;4.028;2022-11-20T00:37:14;5.70;99.90
21037;DHT22;10677;50.942;4.028;2022-11-20T00:39:40;5.70;99.90
21037;DHT22;10677;50.942;4.028;2022-11-20T00:42:05;5.60;99.90
21037;DHT22;10677;50.942;4.028;2022-11-20T00:44:31;5.60;99.90
21037;DHT22;10677;50.942;4.028;2022-11-20T00:46:57;5.70;99.90
21037;DHT22;10677;50.942;4.028;2022-11-20T00:49:22;5.60;99.90
21037;DHT22;10677;50.942;4.028;2022-11-20T00:51:48;5.50;99.90
21037;DHT22;10677;50.942;4.028;2022-11-20T00:54:13;5.50;99.90
21037;DHT22;10677;50.942;4.028;2022-11-20T00:56:39;5.50;99.90
21037;DHT22;10677;50.942;4.028;2022-11-20T00:59:05;5.50;99.90
21037;DHT22;10677;50.942;4.028;2022-11-20T01:01:33;5.50;99.90
21037;DHT22;10677;50.942;4.028;2022-11-20T01:04:00;5.60;99.90
21037;DHT22;10677;50.942;4.028;2022-11-20T01:06:30;5.60;99.90
21037;DHT22;10677;50.942;4.028;2022-11-20T01:08:59;5.70;99.90
21037;DHT22;10677;50.942;4.028;2022-11-20T01:11:28;5.80;99.90
21037;DHT22;10677;50.942;4.028;2022-11-20T01:13:54;5.70;99.90
21037;DHT22;10677;50.942;4.028;2022-11-20T01:16:29;5.70;99.90
21037;DHT22;10677;50.942;4.028;2022-11-20T01:18:58;5.70;99.90
21037;DHT22;10677;50.942;4.028;2022-11-20T01:21:29;5.60;99.90
21037;DHT22;10677;50.942;4.028;2022-11-20T01:23:56;5.70;99.90
21037;DHT22;10677;50.942;4.028;2022-11-20T01:26:24;5.70;99.90
21037;DHT22;10677;50.942;4.028;2022-11-20T01:28:51;5.70;99.90
21037;DHT22;10677;50.942;4.028;2022-11-20T01:31:20;5.70;99.90
21037;DHT22;10677;50.942;4.028;2022-11-20T01:33:47;5.70;99.90
21037;DHT22;10677;50.942;4.028;2022-11-20T01:36:14;5.70;99.90
21037;DHT22;10677;50.942;4.028;2022-11-20T01:38:40;5.80;99.90
21037;DHT22;10677;50.942;4.028;2022-11-20T01:41:07;5.70;99.90
21037;DHT22;10677;50.942;4.028;2022-11-20T01:43:33;5.80;99.90
21037;DHT22;10677;50.942;4.028;2022-11-20T01:46:03;5.80;99.90
21037;DHT22;10677;50.942;4.028;2022-11-20T01:54:06;6.00;99.90
21037;DHT22;10677;50.942;4.028;2022-11-20T01:56:38;6.00;99.90
21037;DHT22;10677;50.942;4.028;2022-11-20T01:59:06;5.90;99.90
21037;DHT22;10677;50.942;4.028;2022-11-20T02:01:33;6.00;99.90
21037;DHT22;10677;50.942;4.028;2022-11-20T02:04:00;6.10;99.90
21037;DHT22;10677;50.942;4.028;2022-11-20T02:09:02;6.20;99.90
21037;DHT22;10677;50.942;4.028;2022-11-20T02:11:30;6.20;99.90
21037;DHT22;10677;50.942;4.028;2022-11-20T02:13:55;6.20;99.90
21037;DHT22;10677;50.942;4.028;2022-11-20T02:18:58;6.20;99.90
21037;DHT22;10677;50.942;4.028;2022-11-20T02:21:41;6.30;99.90
21037;DHT22;10677;50.942;4.028;2022-11-20T02:24:14;6.30;99.90
21037;DHT22;10677;50.942;4.028;2022-11-20T02:29:13;6.20;99.90
21037;DHT22;10677;50.942;4.028;2022-11-20T02:31:42;6.30;99.90
21037;DHT22;10677;50.942;4.028;2022-11-20T02:34:08;6.30;99.90
21037;DHT22;10677;50.942;4.028;2022-11-20T02:36:35;6.40;99.90
21037;DHT22;10677;50.942;4.028;2022-11-20T02:39:03;6.30;99.90
21037;DHT22;10677;50.942;4.028;2022-11-20T02:41:36;6.30;99.90
21037;DHT22;10677;50.942;4.028;2022-11-20T02:44:03;6.20;99.90
21037;DHT22;10677;50.942;4.028;2022-11-20T02:46:30;6.20;99.90
21037;DHT22;10677;50.942;4.028;2022-11-20T02:48:56;6.20;99.90
21037;DHT22;10677;50.942;4.028;2022-11-20T02:51:22;6.30;99.90
21037;DHT22;10677;50.942;4.028;2022-11-20T02:53:48;6.20;99.90
21037;DHT22;10677;50.942;4.028;2022-11-20T02:56:13;6.30;99.90
21037;DHT22;10677;50.942;4.028;2022-11-20T02:58:39;6.30;99.90
21037;DHT22;10677;50.942;4.028;2022-11-20T03:01:05;6.30;99.90
21037;DHT22;10677;50.942;4.028;2022-11-20T03:03:30;6.30;99.90
21037;DHT22;10677;50.942;4.028;2022-11-20T03:05:58;6.30;99.90
21037;DHT22;10677;50.942;4.028;2022-11-20T03:08:24;6.20;99.90
21037;DHT22;10677;50.942;4.028;2022-11-20T03:10:50;6.40;99.90
21037;DHT22;10677;50.942;4.028;2022-11-20T03:13:15;6.40;99.90
21037;DHT22;10677;50.942;4.028;2022-11-20T03:15:41;6.30;99.90
21037;DHT22;10677;50.942;4.028;2022-11-20T03:18:06;6.30;99.90
21037;DHT22;10677;50.942;4.028;2022-11-20T03:20:33;6.20;99.90
21037;DHT22;10677;50.942;4.028;2022-11-20T03:22:59;6.20;99.90
21037;DHT22;10677;50.942;4.028;2022-11-20T03:25:25;6.30;99.90
21037;DHT22;10677;50.942;4.028;2022-11-20T03:27:51;6.30;99.90
21037;DHT22;10677;50.942;4.028;2022-11-20T03:30:16;6.30;99.90
21037;DHT22;10677;50.942;4.028;2022-11-20T03:32:42;6.40;99.90
21037;DHT22;10677;50.942;4.028;2022-11-20T03:35:08;6.30;99.90
21037;DHT22;10677;50.942;4.028;2022-11-20T03:37:34;6.30;99.90
21037;DHT22;10677;50.942;4.028;2022-11-20T03:40:00;6.30;99.90
21037;DHT22;10677;50.942;4.028;2022-11-20T03:42:25;6.30;99.90
21037;DHT22;10677;50.942;4.028;2022-11-20T03:45:10;6.30;99.90
21037;DHT22;10677;50.942;4.028;2022-11-20T03:47:35;6.40;99.90
21037;DHT22;10677;50.942;4.028;2022-11-20T03:50:01;6.30;99.90
21037;DHT22;10677;50.942;4.028;2022-11-20T03:52:27;6.40;99.90
21037;DHT22;10677;50.942;4.028;2022-11-20T03:54:52;6.30;99.90
21037;DHT22;10677;50.942;4.028;2022-11-20T03:57:18;6.20;99.90
21037;DHT22;10677;50.942;4.028;2022-11-20T03:59:43;6.30;99.90
21037;DHT22;10677;50.942;4.028;2022-11-20T04:02:09;6.50;99.90
21037;DHT22;10677;50.942;4.028;2022-11-20T04:04:35;6.40;99.90
21037;DHT22;10677;50.942;4.028;2022-11-20T04:07:00;6.50;99.90
21037;DHT22;10677;50.942;4.028;2022-11-20T04:09:26;6.40;99.90
21037;DHT22;10677;50.942;4.028;2022-11-20T04:11:51;6.30;99.90
21037;DHT22;10677;50.942;4.028;2022-11-20T04:14:17;6.30;99.90
21037;DHT22;10677;50.942;4.028;2022-11-20T04:16:43;6.20;99.90
21037;DHT22;10677;50.942;4.028;2022-11-20T04:19:13;6.20;99.90
21037;DHT22;10677;50.942;4.028;2022-11-20T04:21:40;6.10;99.90
21037;DHT22;10677;50.942;4.028;2022-11-20T04:24:06;6.10;99.90
21037;DHT22;10677;50.942;4.028;2022-11-20T04:26:32;6.20;99.90
21037;DHT22;10677;50.942;4.028;2022-11-20T04:28:58;6.20;99.90
21037;DHT22;10677;50.942;4.028;2022-11-20T04:31:26;6.30;99.90
21037;DHT22;10677;50.942;4.028;2022-11-20T04:33:53;6.30;99.90
21037;DHT22;10677;50.942;4.028;2022-11-20T04:36:24;6.30;99.90
21037;DHT22;10677;50.942;4.028;2022-11-20T04:38:51;6.40;99.90
21037;DHT22;10677;50.942;4.028;2022-11-20T04:41:19;6.30;99.90
21037;DHT22;10677;50.942;4.028;2022-11-20T04:43:49;6.30;99.90
21037;DHT22;10677;50.942;4.028;2022-11-20T04:46:16;6.40;99.90
21037;DHT22;10677;50.942;4.028;2022-11-20T04:48:42;6.40;99.90
21037;DHT22;10677;50.942;4.028;2022-11-20T04:51:08;6.50;99.90
21037;DHT22;10677;50.942;4.028;2022-11-20T04:53:33;6.40;99.90
21037;DHT22;10677;50.942;4.028;2022-11-20T04:56:05;6.40;99.90
21037;DHT22;10677;50.942;4.028;2022-11-20T04:58:31;6.30;99.90
21037;DHT22;10677;50.942;4.028;2022-11-20T05:03:28;6.20;99.90
21037;DHT22;10677;50.942;4.028;2022-11-20T05:05:54;6.30;99.90
21037;DHT22;10677;50.942;4.028;2022-11-20T05:08:20;6.40;99.90
21037;DHT22;10677;50.942;4.028;2022-11-20T05:10:45;6.50;99.90
21037;DHT22;10677;50.942;4.028;2022-11-20T05:13:11;6.40;99.90
21037;DHT22;10677;50.942;4.028;2022-11-20T05:15:36;6.40;99.90
21037;DHT22;10677;50.942;4.028;2022-11-20T05:18:02;6.40;99.90
21037;DHT22;10677;50.942;4.028;2022-11-20T05:20:27;6.40;99.90
21037;DHT22;10677;50.942;4.028;2022-11-20T05:22:56;6.50;99.90
21037;DHT22;10677;50.942;4.028;2022-11-20T05:25:22;6.40;99.90
21037;DHT22;10677;50.942;4.028;2022-11-20T05:27:48;6.40;99.90
21037;DHT22;10677;50.942;4.028;2022-11-20T05:30:14;6.30;99.90
21037;DHT22;10677;50.942;4.028;2022-11-20T05:32:39;6.40;99.90
21037;DHT22;10677;50.942;4.028;2022-11-20T05:35:05;6.40;99.90
21037;DHT22;10677;50.942;4.028;2022-11-20T05:37:31;6.30;99.90
21037;DHT22;10677;50.942;4.028;2022-11-20T05:39:56;6.30;99.90
21037;DHT22;10677;50.942;4.028;2022-11-20T05:42:22;6.30;99.90
21037;DHT22;10677;50.942;4.028;2022-11-20T05:44:58;6.30;99.90
21037;DHT22;10677;50.942;4.028;2022-11-20T05:47:24;6.30;99.90
21037;DHT22;10677;50.942;4.028;2022-11-20T05:49:49;6.40;99.90
21037;DHT22;10677;50.942;4.028;2022-11-20T05:52:15;6.40;99.90
21037;DHT22;10677;50.942;4.028;2022-11-20T05:54:41;6.40;99.90
21037;DHT22;10677;50.942;4.028;2022-11-20T05:57:06;6.20;99.90
21037;DHT22;10677;50.942;4.028;2022-11-20T05:59:32;6.30;99.90
21037;DHT22;10677;50.942;4.028;2022-11-20T06:01:57;6.30;99.90
21037;DHT22;10677;50.942;4.028;2022-11-20T06:04:23;6.40;99.90
21037;DHT22;10677;50.942;4.028;2022-11-20T06:06:49;6.40;99.90
21037;DHT22;10677;50.942;4.028;2022-11-20T06:09:14;6.40;99.90
21037;DHT22;10677;50.942;4.028;2022-11-20T06:11:40;6.40;99.90
21037;DHT22;10677;50.942;4.028;2022-11-20T06:14:05;6.50;99.90
21037;DHT22;10677;50.942;4.028;2022-11-20T06:16:31;6.60;99.90
21037;DHT22;10677;50.942;4.028;2022-11-20T06:18:57;6.60;99.90
21037;DHT22;10677;50.942;4.028;2022-11-20T06:21:23;6.70;99.90
21037;DHT22;10677;50.942;4.028;2022-11-20T06:23:49;6.70;99.90
21037;DHT22;10677;50.942;4.028;2022-11-20T06:26:23;6.80;99.90
21037;DHT22;10677;50.942;4.028;2022-11-20T06:28:50;6.70;99.90
21037;DHT22;10677;50.942;4.028;2022-11-20T06:31:18;6.70;99.90
21037;DHT22;10677;50.942;4.028;2022-11-20T06:33:44;6.70;99.90
21037;DHT22;10677;50.942;4.028;2022-11-20T06:36:13;6.70;99.90
21037;DHT22;10677;50.942;4.028;2022-11-20T06:38:39;6.80;99.90
21037;DHT22;10677;50.942;4.028;2022-11-20T06:41:07;6.80;99.90
21037;DHT22;10677;50.942;4.028;2022-11-20T06:43:32;6.90;99.90
21037;DHT22;10677;50.942;4.028;2022-11-20T06:45:59;6.90;99.90
21037;DHT22;10677;50.942;4.028;2022-11-20T06:48:26;6.90;99.90
21037;DHT22;10677;50.942;4.028;2022-11-20T06:50:52;6.90;99.90
21037;DHT22;10677;50.942;4.028;2022-11-20T06:53:17;6.90;99.90
21037;DHT22;10677;50.942;4.028;2022-11-20T06:55:44;6.90;99.90
21037;DHT22;10677;50.942;4.028;2022-11-20T06:58:10;7.00;99.90
21037;DHT22;10677;50.942;4.028;2022-11-20T07:00:36;7.00;99.90
21037;DHT22;10677;50.942;4.028;2022-11-20T07:03:06;7.00;99.90
21037;DHT22;10677;50.942;4.028;2022-11-20T07:05:32;7.00;99.90
21037;DHT22;10677;50.942;4.028;2022-11-20T07:07:58;7.10;99.90
21037;DHT22;10677;50.942;4.028;2022-11-20T07:10:24;7.20;99.90
21037;DHT22;10677;50.942;4.028;2022-11-20T07:12:51;7.10;99.90
21037;DHT22;10677;50.942;4.028;2022-11-20T07:15:17;7.20;99.90
21037;DHT22;10677;50.942;4.028;2022-11-20T07:17:43;7.10;99.90
21037;DHT22;10677;50.942;4.028;2022-11-20T07:20:09;7.20;99.90
21037;DHT22;10677;50.942;4.028;2022-11-20T07:22:35;7.20;99.90
21037;DHT22;10677;50.942;4.028;2022-11-20T07:25:00;7.20;99.90
21037;DHT22;10677;50.942;4.028;2022-11-20T07:27:27;7.10;99.90
21037;DHT22;10677;50.942;4.028;2022-11-20T07:29:53;7.00;99.90
21037;DHT22;10677;50.942;4.028;2022-11-20T07:32:21;7.10;99.90
21037;DHT22;10677;50.942;4.028;2022-11-20T07:34:47;6.80;99.90
21037;DHT22;10677;50.942;4.028;2022-11-20T07:37:13;6.90;99.90
21037;DHT22;10677;50.942;4.028;2022-11-20T07:39:39;6.90;99.90
21037;DHT22;10677;50.942;4.028;2022-11-20T07:42:06;7.00;99.90
21037;DHT22;10677;50.942;4.028;2022-11-20T07:44:32;6.90;99.90
21037;DHT22;10677;50.942;4.028;2022-11-20T07:46:57;6.90;99.90
21037;DHT22;10677;50.942;4.028;2022-11-20T07:49:23;6.80;99.90
21037;DHT22;10677;50.942;4.028;2022-11-20T07:51:52;6.80;99.90
21037;DHT22;10677;50.942;4.028;2022-11-20T07:54:21;6.70;99.90
21037;DHT22;10677;50.942;4.028;2022-11-20T07:56:47;6.80;99.90
21037;DHT22;10677;50.942;4.028;2022-11-20T07:59:13;6.70;99.90
21037;DHT22;10677;50.942;4.028;2022-11-20T08:01:39;6.90;99.90
21037;DHT22;10677;50.942;4.028;2022-11-20T08:04:05;6.90;99.90
21037;DHT22;10677;50.942;4.028;2022-11-20T08:06:32;7.00;99.90
21037;DHT22;10677;50.942;4.028;2022-11-20T08:08:58;7.10;99.90
21037;DHT22;10677;50.942;4.028;2022-11-20T08:11:23;7.20;99.90
21037;DHT22;10677;50.942;4.028;2022-11-20T08:14:07;7.20;99.90
21037;DHT22;10677;50.942;4.028;2022-11-20T08:16:40;7.20;99.90
21037;DHT22;10677;50.942;4.028;2022-11-20T08:19:06;7.10;99.90
21037;DHT22;10677;50.942;4.028;2022-11-20T08:21:32;7.10;99.90
21037;DHT22;10677;50.942;4.028;2022-11-20T08:23:58;7.00;99.90
21037;DHT22;10677;50.942;4.028;2022-11-20T08:26:24;7.10;99.90
21037;DHT22;10677;50.942;4.028;2022-11-20T08:28:54;7.20;99.90
21037;DHT22;10677;50.942;4.028;2022-11-20T08:31:20;7.20;99.90
21037;DHT22;10677;50.942;4.028;2022-11-20T08:33:45;7.20;99.90
21037;DHT22;10677;50.942;4.028;2022-11-20T08:36:11;7.30;99.90
21037;DHT22;10677;50.942;4.028;2022-11-20T08:38:37;7.30;99.90
21037;DHT22;10677;50.942;4.028;2022-11-20T08:41:04;7.40;99.90
21037;DHT22;10677;50.942;4.028;2022-11-20T08:43:49;7.40;99.90
21037;DHT22;10677;50.942;4.028;2022-11-20T08:46:15;7.40;99.90
21037;DHT22;10677;50.942;4.028;2022-11-20T08:48:41;7.40;99.90
21037;DHT22;10677;50.942;4.028;2022-11-20T08:51:06;7.50;99.90
21037;DHT22;10677;50.942;4.028;2022-11-20T08:53:32;7.50;99.90
21037;DHT22;10677;50.942;4.028;2022-11-20T08:55:58;7.50;99.90
21037;DHT22;10677;50.942;4.028;2022-11-20T08:58:24;7.40;99.90
21037;DHT22;10677;50.942;4.028;2022-11-20T09:00:50;7.40;99.90
21037;DHT22;10677;50.942;4.028;2022-11-20T09:03:15;7.40;99.90
21037;DHT22;10677;50.942;4.028;2022-11-20T09:05:41;7.50;99.90
21037;DHT22;10677;50.942;4.028;2022-11-20T09:08:06;7.50;99.90
21037;DHT22;10677;50.942;4.028;2022-11-20T09:10:32;7.60;99.90
21037;DHT22;10677;50.942;4.028;2022-11-20T09:12:57;7.70;99.90
21037;DHT22;10677;50.942;4.028;2022-11-20T09:15:26;7.90;99.90
21037;DHT22;10677;50.942;4.028;2022-11-20T09:17:53;8.00;99.90
21037;DHT22;10677;50.942;4.028;2022-11-20T09:20:19;7.90;99.90
21037;DHT22;10677;50.942;4.028;2022-11-20T09:22:45;8.00;99.90
21037;DHT22;10677;50.942;4.028;2022-11-20T09:25:11;8.00;99.90
21037;DHT22;10677;50.942;4.028;2022-11-20T09:27:36;8.00;99.90
21037;DHT22;10677;50.942;4.028;2022-11-20T09:30:04;8.10;99.90
21037;DHT22;10677;50.942;4.028;2022-11-20T09:32:29;8.20;99.90
21037;DHT22;10677;50.942;4.028;2022-11-20T09:34:55;8.20;99.90
21037;DHT22;10677;50.942;4.028;2022-11-20T09:37:21;8.20;99.90
21037;DHT22;10677;50.942;4.028;2022-11-20T09:39:46;8.30;99.90
21037;DHT22;10677;50.942;4.028;2022-11-20T09:53:07;8.40;99.90
21037;DHT22;10677;50.942;4.028;2022-11-20T09:55:36;8.50;99.90
21037;DHT22;10677;50.942;4.028;2022-11-20T09:58:06;8.50;99.90
21037;DHT22;10677;50.942;4.028;2022-11-20T10:00:34;8.60;99.90
21037;DHT22;10677;50.942;4.028;2022-11-20T10:03:22;8.60;99.90
21037;DHT22;10677;50.942;4.028;2022-11-20T10:05:54;8.60;99.90
21037;DHT22;10677;50.942;4.028;2022-11-20T10:08:27;8.60;99.90
21037;DHT22;10677;50.942;4.028;2022-11-20T10:11:21;8.80;99.90
21037;DHT22;10677;50.942;4.028;2022-11-20T10:24:56;9.30;99.90
21037;DHT22;10677;50.942;4.028;2022-11-20T10:30:02;9.40;99.90
21037;DHT22;10677;50.942;4.028;2022-11-20T10:32:34;9.40;99.90
21037;DHT22;10677;50.942;4.028;2022-11-20T10:35:07;9.40;99.90
21037;DHT22;10677;50.942;4.028;2022-11-20T10:37:44;9.40;99.90
21037;DHT22;10677;50.942;4.028;2022-11-20T10:40:23;9.50;99.90
21037;DHT22;10677;50.942;4.028;2022-11-20T10:42:55;9.70;99.90
21037;DHT22;10677;50.942;4.028;2022-11-20T10:47:52;9.70;99.90
21037;DHT22;10677;50.942;4.028;2022-11-20T10:50:21;9.70;99.90
21037;DHT22;10677;50.942;4.028;2022-11-20T10:52:58;9.70;99.90
21037;DHT22;10677;50.942;4.028;2022-11-20T10:55:40;9.70;99.90
21037;DHT22;10677;50.942;4.028;2022-11-20T11:01:22;9.80;99.90
21037;DHT22;10677;50.942;4.028;2022-11-20T11:03:52;9.80;99.90
21037;DHT22;10677;50.942;4.028;2022-11-20T11:06:35;9.70;99.90
21037;DHT22;10677;50.942;4.028;2022-11-20T11:09:11;9.80;99.90
21037;DHT22;10677;50.942;4.028;2022-11-20T11:11:39;9.80;99.90
21037;DHT22;10677;50.942;4.028;2022-11-20T11:14:06;9.80;99.90
21037;DHT22;10677;50.942;4.028;2022-11-20T11:16:32;9.70;99.90
21037;DHT22;10677;50.942;4.028;2022-11-20T11:19:11;9.70;99.90
21037;DHT22;10677;50.942;4.028;2022-11-20T11:21:37;9.70;99.90
21037;DHT22;10677;50.942;4.028;2022-11-20T11:24:19;9.70;99.90
21037;DHT22;10677;50.942;4.028;2022-11-20T11:26:57;9.70;99.90
21037;DHT22;10677;50.942;4.028;2022-11-20T11:29:23;9.70;99.90
21037;DHT22;10677;50.942;4.028;2022-11-20T11:32:03;9.60;99.90
21037;DHT22;10677;50.942;4.028;2022-11-20T11:34:30;9.50;99.90
21037;DHT22;10677;50.942;4.028;2022-11-20T11:36:58;9.50;99.90
21037;DHT22;10677;50.942;4.028;2022-11-20T11:39:25;9.60;99.90
21037;DHT22;10677;50.942;4.028;2022-11-20T11:41:51;9.60;99.90
21037;DHT22;10677;50.942;4.028;2022-11-20T11:44:27;9.80;99.90
21037;DHT22;10677;50.942;4.028;2022-11-20T11:47:34;9.70;99.90
21037;DHT22;10677;50.942;4.028;2022-11-20T11:53:16;9.50;99.90
21037;DHT22;10677;50.942;4.028;2022-11-20T11:55:58;9.40;99.90
21037;DHT22;10677;50.942;4.028;2022-11-20T12:04:24;9.20;99.90
21037;DHT22;10677;50.942;4.028;2022-11-20T12:06:58;9.20;99.90
21037;DHT22;10677;50.942;4.028;2022-11-20T12:09:32;9.00;99.90
21037;DHT22;10677;50.942;4.028;2022-11-20T12:12:08;9.00;99.90
21037;DHT22;10677;50.942;4.028;2022-11-20T12:14:37;9.00;99.90
21037;DHT22;10677;50.942;4.028;2022-11-20T12:17:05;9.00;99.90
21037;DHT22;10677;50.942;4.028;2022-11-20T12:19:33;9.00;99.90
21037;DHT22;10677;50.942;4.028;2022-11-20T12:27:35;9.10;99.90
21037;DHT22;10677;50.942;4.028;2022-11-20T12:30:15;9.10;99.90
21037;DHT22;10677;50.942;4.028;2022-11-20T12:32:51;9.20;99.90
21037;DHT22;10677;50.942;4.028;2022-11-20T12:40:42;9.20;99.90
21037;DHT22;10677;50.942;4.028;2022-11-20T12:43:24;9.20;99.90
21037;DHT22;10677;50.942;4.028;2022-11-20T12:51:34;9.20;99.90
21037;DHT22;10677;50.942;4.028;2022-11-20T12:59:51;9.10;99.90
21037;DHT22;10677;50.942;4.028;2022-11-20T13:05:19;9.00;99.90
21037;DHT22;10677;50.942;4.028;2022-11-20T13:07:47;9.00;99.90
21037;DHT22;10677;50.942;4.028;2022-11-20T13:13:23;9.00;99.90
21037;DHT22;10677;50.942;4.028;2022-11-20T13:19:05;9.00;99.90
21037;DHT22;10677;50.942;4.028;2022-11-20T13:26:46;8.90;99.90
21037;DHT22;10677;50.942;4.028;2022-11-20T13:29:17;8.90;99.90
21037;DHT22;10677;50.942;4.028;2022-11-20T13:31:46;8.90;99.90
21037;DHT22;10677;50.942;4.028;2022-11-20T13:34:20;8.90;99.90
21037;DHT22;10677;50.942;4.028;2022-11-20T13:36:51;8.90;99.90
21037;DHT22;10677;50.942;4.028;2022-11-20T13:39:36;8.90;99.90
21037;DHT22;10677;50.942;4.028;2022-11-20T13:42:20;9.00;99.90
21037;DHT22;10677;50.942;4.028;2022-11-20T13:44:54;9.10;99.90
21037;DHT22;10677;50.942;4.028;2022-11-20T13:47:27;9.20;99.90
21037;DHT22;10677;50.942;4.028;2022-11-20T13:49:54;9.20;99.90
21037;DHT22;10677;50.942;4.028;2022-11-20T13:52:33;9.20;99.90
21037;DHT22;10677;50.942;4.028;2022-11-20T14:00:21;9.10;99.90
21037;DHT22;10677;50.942;4.028;2022-11-20T14:03:17;9.10;99.90
21037;DHT22;10677;50.942;4.028;2022-11-20T14:05:52;9.00;99.90
21037;DHT22;10677;50.942;4.028;2022-11-20T14:08:39;9.10;99.90
21037;DHT22;10677;50.942;4.028;2022-11-20T14:11:21;9.00;99.90
21037;DHT22;10677;50.942;4.028;2022-11-20T14:14:03;9.00;99.90
21037;DHT22;10677;50.942;4.028;2022-11-20T14:16:32;9.10;99.90
21037;DHT22;10677;50.942;4.028;2022-11-20T14:24:29;9.20;99.90
21037;DHT22;10677;50.942;4.028;2022-11-20T14:26:57;9.20;99.90
21037;DHT22;10677;50.942;4.028;2022-11-20T14:29:28;9.10;99.90
21037;DHT22;10677;50.942;4.028;2022-11-20T14:31:55;9.20;99.90
21037;DHT22;10677;50.942;4.028;2022-11-20T14:34:27;9.20;99.90
21037;DHT22;10677;50.942;4.028;2022-11-20T14:36:57;9.20;99.90
21037;DHT22;10677;50.942;4.028;2022-11-20T14:39:37;9.30;99.90
21037;DHT22;10677;50.942;4.028;2022-11-20T14:42:16;9.40;99.90
21037;DHT22;10677;50.942;4.028;2022-11-20T14:44:43;9.40;99.90
21037;DHT22;10677;50.942;4.028;2022-11-20T14:47:11;9.50;99.90
21037;DHT22;10677;50.942;4.028;2022-11-20T14:49:39;9.60;99.90
21037;DHT22;10677;50.942;4.028;2022-11-20T14:52:20;9.70;99.90
21037;DHT22;10677;50.942;4.028;2022-11-20T14:54:48;9.80;99.90
21037;DHT22;10677;50.942;4.028;2022-11-20T14:59:47;10.00;99.90
21037;DHT22;10677;50.942;4.028;2022-11-20T15:02:13;10.10;99.90
21037;DHT22;10677;50.942;4.028;2022-11-20T15:04:49;10.00;99.90
21037;DHT22;10677;50.942;4.028;2022-11-20T15:07:30;10.00;99.90
21037;DHT22;10677;50.942;4.028;2022-11-20T15:10:05;10.00;99.90
21037;DHT22;10677;50.942;4.028;2022-11-20T15:12:33;10.00;99.90
21037;DHT22;10677;50.942;4.028;2022-11-20T15:15:01;10.00;99.90
21037;DHT22;10677;50.942;4.028;2022-11-20T15:17:28;10.00;99.90
21037;DHT22;10677;50.942;4.028;2022-11-20T15:19:53;10.00;99.90
21037;DHT22;10677;50.942;4.028;2022-11-20T15:22:20;9.90;99.90
21037;DHT22;10677;50.942;4.028;2022-11-20T15:24:45;9.90;99.90
21037;DHT22;10677;50.942;4.028;2022-11-20T15:27:11;9.90;99.90
21037;DHT22;10677;50.942;4.028;2022-11-20T15:29:37;9.80;99.90
21037;DHT22;10677;50.942;4.028;2022-11-20T15:32:03;9.80;99.90
21037;DHT22;10677;50.942;4.028;2022-11-20T15:34:28;9.80;99.90
21037;DHT22;10677;50.942;4.028;2022-11-20T15:36:54;9.70;99.90
21037;DHT22;10677;50.942;4.028;2022-11-20T15:39:20;9.70;99.90
21037;DHT22;10677;50.942;4.028;2022-11-20T15:41:46;9.50;99.90
21037;DHT22;10677;50.942;4.028;2022-11-20T15:44:12;9.60;99.90
21037;DHT22;10677;50.942;4.028;2022-11-20T15:46:40;9.60;99.90
21037;DHT22;10677;50.942;4.028;2022-11-20T15:49:12;9.70;99.90
21037;DHT22;10677;50.942;4.028;2022-11-20T15:51:44;9.60;99.90
21037;DHT22;10677;50.942;4.028;2022-11-20T15:54:12;9.50;99.90
21037;DHT22;10677;50.942;4.028;2022-11-20T15:56:38;9.60;99.90
21037;DHT22;10677;50.942;4.028;2022-11-20T15:59:04;9.70;99.90
21037;DHT22;10677;50.942;4.028;2022-11-20T16:01:29;9.60;99.90
21037;DHT22;10677;50.942;4.028;2022-11-20T16:03:55;9.50;99.90
21037;DHT22;10677;50.942;4.028;2022-11-20T16:06:21;9.50;99.90
21037;DHT22;10677;50.942;4.028;2022-11-20T16:08:50;9.40;99.90
21037;DHT22;10677;50.942;4.028;2022-11-20T16:11:17;9.30;99.90
21037;DHT22;10677;50.942;4.028;2022-11-20T16:13:43;9.30;99.90
21037;DHT22;10677;50.942;4.028;2022-11-20T16:16:32;9.20;99.90
21037;DHT22;10677;50.942;4.028;2022-11-20T16:18:58;9.30;99.90
21037;DHT22;10677;50.942;4.028;2022-11-20T16:21:25;9.40;99.90
21037;DHT22;10677;50.942;4.028;2022-11-20T16:23:58;9.40;99.90
21037;DHT22;10677;50.942;4.028;2022-11-20T16:26:24;9.30;99.90
21037;DHT22;10677;50.942;4.028;2022-11-20T16:28:49;9.30;99.90
21037;DHT22;10677;50.942;4.028;2022-11-20T16:31:17;9.30;99.90
21037;DHT22;10677;50.942;4.028;2022-11-20T16:33:48;9.40;99.90
21037;DHT22;10677;50.942;4.028;2022-11-20T16:36:14;9.40;99.90
21037;DHT22;10677;50.942;4.028;2022-11-20T16:38:41;9.10;99.90
21037;DHT22;10677;50.942;4.028;2022-11-20T16:41:07;8.90;99.90
21037;DHT22;10677;50.942;4.028;2022-11-20T16:43:44;8.80;99.90
21037;DHT22;10677;50.942;4.028;2022-11-20T16:46:10;8.80;99.90
21037;DHT22;10677;50.942;4.028;2022-11-20T16:48:36;8.70;99.90
21037;DHT22;10677;50.942;4.028;2022-11-20T16:51:02;8.70;99.90
21037;DHT22;10677;50.942;4.028;2022-11-20T16:53:27;8.60;99.90
21037;DHT22;10677;50.942;4.028;2022-11-20T16:55:53;8.70;99.90
21037;DHT22;10677;50.942;4.028;2022-11-20T16:58:18;8.70;99.90
21037;DHT22;10677;50.942;4.028;2022-11-20T17:00:44;8.80;99.90
21037;DHT22;10677;50.942;4.028;2022-11-20T17:03:10;9.10;99.90
21037;DHT22;10677;50.942;4.028;2022-11-20T17:05:35;9.20;99.90
21037;DHT22;10677;50.942;4.028;2022-11-20T17:08:01;9.20;99.90
21037;DHT22;10677;50.942;4.028;2022-11-20T17:10:27;9.20;99.90
21037;DHT22;10677;50.942;4.028;2022-11-20T17:12:52;9.10;99.90
21037;DHT22;10677;50.942;4.028;2022-11-20T17:15:18;8.90;99.90
21037;DHT22;10677;50.942;4.028;2022-11-20T17:17:44;8.80;99.90
21037;DHT22;10677;50.942;4.028;2022-11-20T17:20:10;8.60;99.90
21037;DHT22;10677;50.942;4.028;2022-11-20T17:22:38;8.60;99.90
21037;DHT22;10677;50.942;4.028;2022-11-20T17:25:04;8.50;99.90
21037;DHT22;10677;50.942;4.028;2022-11-20T17:27:30;8.50;99.90
21037;DHT22;10677;50.942;4.028;2022-11-20T17:29:55;8.40;99.90
21037;DHT22;10677;50.942;4.028;2022-11-20T17:32:23;8.40;99.90
21037;DHT22;10677;50.942;4.028;2022-11-20T17:34:48;8.30;99.90
21037;DHT22;10677;50.942;4.028;2022-11-20T17:37:14;8.30;99.90